createdAt,value
2022-09-13T00:00:44.215Z,1.48
2022-09-13T00:03:13.495Z,1.48
2022-09-13T00:05:42.486Z,0.85
2022-09-13T00:08:10.483Z,0.93
2022-09-13T00:10:39.134Z,0.88
2022-09-13T00:13:06.843Z,1.00
2022-09-13T00:15:41.213Z,1.20
2022-09-13T00:18:08.004Z,1.27
2022-09-13T00:20:35.075Z,0.80
2022-09-13T00:23:01.750Z,0.85
2022-09-13T00:25:28.433Z,1.15
2022-09-13T00:27:55.162Z,1.30
2022-09-13T00:30:21.831Z,1.00
2022-09-13T00:36:06.585Z,0.93
2022-09-13T00:38:36.269Z,1.05
2022-09-13T00:41:05.116Z,0.98
2022-09-13T00:43:47.800Z,1.20
2022-09-13T00:46:44.504Z,1.55
2022-09-13T00:49:19.190Z,1.02
2022-09-13T00:51:57.423Z,0.90
2022-09-13T00:54:27.339Z,1.10
2022-09-13T00:56:56.026Z,0.82
2022-09-13T00:59:36.271Z,0.77
2022-09-13T01:02:04.607Z,0.75
2022-09-13T01:04:33.132Z,0.70
2022-09-13T01:07:04.221Z,0.57
2022-09-13T01:09:33.222Z,1.00
2022-09-13T01:12:05.148Z,0.90
2022-09-13T01:14:32.756Z,0.70
2022-09-13T01:16:59.503Z,1.13
2022-09-13T01:19:26.477Z,0.93
2022-09-13T01:22:29.060Z,0.90
2022-09-13T01:25:01.547Z,0.88
2022-09-13T01:27:46.547Z,0.93
2022-09-13T01:30:19.329Z,0.75
2022-09-13T01:33:04.166Z,0.60
2022-09-13T01:35:46.155Z,0.98
2022-09-13T01:38:31.237Z,0.70
2022-09-13T01:41:25.086Z,0.80
2022-09-13T01:44:15.967Z,1.05
2022-09-13T01:47:20.481Z,0.80
2022-09-13T01:49:47.116Z,0.80
2022-09-13T01:52:34.372Z,1.08
2022-09-13T01:55:13.767Z,1.17
2022-09-13T01:57:40.359Z,1.00
2022-09-13T02:00:10.925Z,0.73
2022-09-13T02:02:51.443Z,0.85
2022-09-13T02:05:23.264Z,0.60
2022-09-13T02:07:58.281Z,0.82
2022-09-13T02:10:39.046Z,0.68
2022-09-13T02:13:08.605Z,0.80
2022-09-13T02:15:40.134Z,1.15
2022-09-13T02:18:16.012Z,0.70
2022-09-13T02:20:45.023Z,1.00
2022-09-13T02:23:22.420Z,1.40
2022-09-13T02:25:49.764Z,0.90
2022-09-13T02:28:21.462Z,0.70
2022-09-13T02:30:51.722Z,1.00
2022-09-13T02:33:29.420Z,0.70
2022-09-13T02:36:07.157Z,1.10
2022-09-13T02:38:37.675Z,0.90
2022-09-13T02:41:15.050Z,0.80
2022-09-13T02:43:45.399Z,1.00
2022-09-13T02:46:18.567Z,0.77
2022-09-13T02:49:04.780Z,0.98
2022-09-13T02:51:56.537Z,0.60
2022-09-13T02:54:32.222Z,1.08
2022-09-13T02:57:06.254Z,0.80
2022-09-13T02:59:35.277Z,0.77
2022-09-13T03:02:17.126Z,1.05
2022-09-13T03:04:46.934Z,1.00
2022-09-13T03:07:14.675Z,1.00
2022-09-13T03:09:48.628Z,1.15
2022-09-13T03:12:55.946Z,1.02
2022-09-13T03:15:42.265Z,1.20
2022-09-13T03:18:34.916Z,0.73
2022-09-13T03:21:18.644Z,0.98
2022-09-13T03:24:10.794Z,0.90
2022-09-13T03:26:46.626Z,1.00
2022-09-13T03:29:33.622Z,0.90
2022-09-13T03:32:21.385Z,0.95
2022-09-13T03:35:09.464Z,0.85
2022-09-13T03:37:51.373Z,1.13
2022-09-13T03:40:26.206Z,1.08
2022-09-13T03:43:03.548Z,1.10
2022-09-13T03:45:34.141Z,1.27
2022-09-13T03:48:04.282Z,0.90
2022-09-13T03:50:33.756Z,1.42
2022-09-13T03:53:07.407Z,1.13
2022-09-13T03:55:35.138Z,1.25
2022-09-13T03:58:04.535Z,1.15
2022-09-13T04:03:00.175Z,0.93
2022-09-13T04:05:29.035Z,0.82
2022-09-13T04:07:56.150Z,1.05
2022-09-13T04:10:24.279Z,1.20
2022-09-13T04:12:52.023Z,1.08
2022-09-13T04:15:18.699Z,1.38
2022-09-13T04:17:45.431Z,1.40
2022-09-13T04:20:14.705Z,1.27
2022-09-13T04:22:42.200Z,1.42
2022-09-13T04:25:09.366Z,1.08
2022-09-13T04:27:41.137Z,1.50
2022-09-13T04:32:41.547Z,1.15
2022-09-13T04:35:09.262Z,1.08
2022-09-13T04:37:39.166Z,1.58
2022-09-13T04:40:09.565Z,1.40
2022-09-13T04:42:36.358Z,1.80
2022-09-13T04:45:06.518Z,1.83
2022-09-13T04:47:33.214Z,1.23
2022-09-13T04:49:59.874Z,1.42
2022-09-13T04:52:26.600Z,1.70
2022-09-13T04:54:53.348Z,1.08
2022-09-13T04:57:22.857Z,1.48
2022-09-13T04:59:49.507Z,1.23
2022-09-13T05:02:21.461Z,1.48
2022-09-13T05:04:50.529Z,1.25
2022-09-13T05:07:17.605Z,1.63
2022-09-13T05:09:44.245Z,1.40
2022-09-13T05:12:13.281Z,1.00
2022-09-13T05:14:40.247Z,1.60
2022-09-13T05:17:09.682Z,1.60
2022-09-13T05:22:03.305Z,1.45
2022-09-13T05:24:30.002Z,1.15
2022-09-13T05:26:56.700Z,1.10
2022-09-13T05:29:23.381Z,1.23
2022-09-13T05:31:52.715Z,1.13
2022-09-13T05:36:54.164Z,1.52
2022-09-13T05:39:39.448Z,1.17
2022-09-13T05:42:09.036Z,1.40
2022-09-13T05:44:35.675Z,1.45
2022-09-13T05:47:02.430Z,1.50
2022-09-13T05:49:31.473Z,1.95
2022-09-13T05:52:00.724Z,1.83
2022-09-13T05:54:29.640Z,1.40
2022-09-13T05:57:01.162Z,1.48
2022-09-13T05:59:32.304Z,1.65
2022-09-13T06:01:59.404Z,1.83
2022-09-13T06:04:28.288Z,2.03
2022-09-13T06:06:55.103Z,1.65
2022-09-13T06:09:21.797Z,1.88
2022-09-13T06:11:48.498Z,1.40
2022-09-13T06:14:15.174Z,1.83
2022-09-13T06:16:41.837Z,2.03
2022-09-13T06:19:08.928Z,2.05
2022-09-13T06:21:38.109Z,2.17
2022-09-13T06:24:07.232Z,1.80
2022-09-13T06:26:36.363Z,2.83
2022-09-13T06:29:03.128Z,2.13
2022-09-13T06:31:34.686Z,2.08
2022-09-13T06:34:04.777Z,2.33
2022-09-13T06:36:33.981Z,2.28
2022-09-13T06:39:06.557Z,2.03
2022-09-13T06:41:38.305Z,2.47
2022-09-13T06:44:05.444Z,2.25
2022-09-13T06:46:34.511Z,2.10
2022-09-13T06:49:06.498Z,2.17
2022-09-13T06:51:34.500Z,1.92
2022-09-13T06:54:03.899Z,2.20
2022-09-13T06:56:35.331Z,2.45
2022-09-13T06:59:07.488Z,2.60
2022-09-13T07:01:35.450Z,1.85
2022-09-13T07:04:03.401Z,2.00
2022-09-13T07:06:36.665Z,2.35
2022-09-13T07:09:10.073Z,2.22
2022-09-13T07:11:38.525Z,2.13
2022-09-13T07:14:09.431Z,2.37
2022-09-13T07:16:37.744Z,1.75
2022-09-13T07:19:12.024Z,2.38
2022-09-13T07:21:41.171Z,2.42
2022-09-13T07:24:12.712Z,2.83
2022-09-13T07:26:39.866Z,2.58
2022-09-13T07:29:09.127Z,3.45
2022-09-13T07:31:37.672Z,3.72
2022-09-13T07:34:09.583Z,3.83
2022-09-13T07:36:36.748Z,3.92
2022-09-13T07:39:04.675Z,3.53
2022-09-13T07:41:32.474Z,1.95
2022-09-13T07:44:04.756Z,2.20
2022-09-13T07:46:32.849Z,1.58
2022-09-13T07:49:01.098Z,1.40
2022-09-13T07:51:32.816Z,1.48
2022-09-13T07:54:01.851Z,1.10
2022-09-13T07:56:32.776Z,0.80
2022-09-13T07:59:01.097Z,0.90
2022-09-13T08:01:28.711Z,1.23
2022-09-13T08:03:57.325Z,1.15
2022-09-13T08:06:28.090Z,1.38
2022-09-13T08:08:55.267Z,1.85
2022-09-13T08:11:33.259Z,1.35
2022-09-13T08:14:05.878Z,1.10
2022-09-13T08:16:33.497Z,2.92
2022-09-13T08:19:03.832Z,1.23
2022-09-13T08:21:40.746Z,0.82
2022-09-13T08:24:17.467Z,1.17
2022-09-13T08:26:44.860Z,1.55
2022-09-13T08:29:17.443Z,1.20
2022-09-13T08:31:44.386Z,0.90
2022-09-13T08:34:12.970Z,1.50
2022-09-13T08:36:42.462Z,1.73
2022-09-13T08:39:10.071Z,1.55
2022-09-13T08:41:47.905Z,1.83
2022-09-13T08:44:31.134Z,1.92
2022-09-13T08:47:19.682Z,1.30
2022-09-13T08:49:54.413Z,1.67
2022-09-13T08:52:28.850Z,1.80
2022-09-13T08:55:00.363Z,1.85
2022-09-13T08:57:53.684Z,1.20
2022-09-13T09:00:38.550Z,1.30
2022-09-13T09:03:17.967Z,1.10
2022-09-13T09:05:47.966Z,1.48
2022-09-13T09:08:31.337Z,1.33
2022-09-13T09:11:04.029Z,0.93
2022-09-13T09:13:51.151Z,1.15
2022-09-13T09:16:36.237Z,0.93
2022-09-13T09:19:27.439Z,1.30
2022-09-13T09:21:54.150Z,1.83
2022-09-13T09:24:25.367Z,1.10
2022-09-13T09:26:57.729Z,1.30
2022-09-13T09:29:28.939Z,0.73
2022-09-13T09:32:33.355Z,0.80
2022-09-13T09:35:17.850Z,1.40
2022-09-13T09:37:47.996Z,1.95
2022-09-13T09:40:17.258Z,1.27
2022-09-13T09:42:48.176Z,0.93
2022-09-13T09:45:33.912Z,1.10
2022-09-13T09:48:07.503Z,1.02
2022-09-13T09:50:50.206Z,1.05
2022-09-13T09:53:30.010Z,0.68
2022-09-13T09:56:15.290Z,1.50
2022-09-13T09:58:43.675Z,1.17
2022-09-13T10:01:16.602Z,0.70
2022-09-13T10:03:50.819Z,0.90
2022-09-13T10:06:25.676Z,0.80
2022-09-13T10:09:03.149Z,1.85
2022-09-13T10:12:01.544Z,1.10
2022-09-13T10:14:46.205Z,0.90
2022-09-13T10:17:21.766Z,1.00
2022-09-13T10:19:54.226Z,0.90
2022-09-13T10:22:23.603Z,1.13
2022-09-13T10:24:50.772Z,1.13
2022-09-13T10:27:23.474Z,0.95
2022-09-13T10:29:52.757Z,1.50
2022-09-13T10:32:19.851Z,1.15
2022-09-13T10:34:47.005Z,1.02
2022-09-13T10:37:24.444Z,0.73
2022-09-13T10:40:38.670Z,1.10
2022-09-13T10:43:16.122Z,1.20
2022-09-13T10:45:43.012Z,1.17
2022-09-13T10:48:13.487Z,1.10
2022-09-13T10:51:17.807Z,1.58
2022-09-13T10:53:44.556Z,1.35
2022-09-13T10:56:23.512Z,1.05
2022-09-13T11:01:33.412Z,1.23
2022-09-13T11:04:44.222Z,1.77
2022-09-13T11:07:20.746Z,1.10
2022-09-13T11:09:52.696Z,1.30
2022-09-13T11:12:31.443Z,1.58
2022-09-13T11:15:37.108Z,1.33
2022-09-13T11:18:14.165Z,1.05
2022-09-13T11:21:04.507Z,1.38
2022-09-13T11:23:49.883Z,1.25
2022-09-13T11:26:46.737Z,1.20
2022-09-13T11:29:26.207Z,1.35
2022-09-13T11:32:18.515Z,5.47
2022-09-13T11:35:06.392Z,1.05
2022-09-13T11:37:33.028Z,0.80
2022-09-13T11:40:16.424Z,1.27
2022-09-13T11:42:58.831Z,1.98
2022-09-13T11:45:38.506Z,0.95
2022-09-13T11:48:30.608Z,0.70
2022-09-13T11:51:21.739Z,0.90
2022-09-13T11:54:12.846Z,0.60
2022-09-13T11:56:43.246Z,0.90
2022-09-13T11:59:40.065Z,0.40
2022-09-13T12:02:34.527Z,0.47
2022-09-13T12:05:22.543Z,0.40
2022-09-13T12:07:54.194Z,0.50
2022-09-13T12:10:47.280Z,0.55
2022-09-13T12:13:22.832Z,0.60
2022-09-13T12:15:53.215Z,0.40
2022-09-13T12:18:26.153Z,0.47
2022-09-13T12:20:56.200Z,0.40
2022-09-13T12:23:29.291Z,0.70
2022-09-13T12:26:18.430Z,0.43
2022-09-13T12:28:49.734Z,0.70
2022-09-13T12:31:21.752Z,0.57
2022-09-13T12:33:49.161Z,0.40
2022-09-13T12:36:22.011Z,0.60
2022-09-13T12:39:19.570Z,0.40
2022-09-13T12:42:10.557Z,0.50
2022-09-13T12:45:17.887Z,0.30
2022-09-13T12:47:56.458Z,0.50
2022-09-13T12:50:51.384Z,0.50
2022-09-13T12:53:33.091Z,0.60
2022-09-13T12:56:24.262Z,0.43
2022-09-13T12:59:30.408Z,0.70
2022-09-13T13:01:58.419Z,0.50
2022-09-13T13:04:33.493Z,0.43
2022-09-13T13:07:03.889Z,0.70
2022-09-13T13:09:36.874Z,0.70
2022-09-13T13:12:06.449Z,0.40
2022-09-13T13:14:41.475Z,0.40
2022-09-13T13:17:38.159Z,0.50
2022-09-13T13:20:42.479Z,0.40
2022-09-13T13:23:24.166Z,0.50
2022-09-13T13:26:46.145Z,0.45
2022-09-13T13:29:17.977Z,0.52
2022-09-13T13:31:53.310Z,0.60
2022-09-13T13:34:22.961Z,0.30
2022-09-13T13:37:22.776Z,0.40
2022-09-13T13:40:10.233Z,0.40
2022-09-13T13:42:39.985Z,0.40
2022-09-13T13:45:20.865Z,0.30
2022-09-13T13:48:24.943Z,0.40
2022-09-13T13:51:26.114Z,0.50
2022-09-13T13:54:05.860Z,0.40
2022-09-13T13:56:47.135Z,0.70
2022-09-13T13:59:31.057Z,0.50
2022-09-13T14:02:01.995Z,0.82
2022-09-13T14:04:37.960Z,0.70
2022-09-13T14:07:36.804Z,0.80
2022-09-13T14:10:12.318Z,0.40
2022-09-13T14:13:07.835Z,0.30
2022-09-13T14:15:37.462Z,0.43
2022-09-13T14:18:07.146Z,0.60
2022-09-13T14:20:36.142Z,0.40
2022-09-13T14:23:19.715Z,0.40
2022-09-13T14:25:54.877Z,0.30
2022-09-13T14:28:22.570Z,0.60
2022-09-13T14:30:53.779Z,0.70
2022-09-13T14:33:32.450Z,0.40
2022-09-13T14:36:27.943Z,0.30
2022-09-13T14:38:58.772Z,0.20
2022-09-13T14:41:37.633Z,0.40
2022-09-13T14:44:28.784Z,0.30
2022-09-13T14:47:15.067Z,0.60
2022-09-13T14:49:48.908Z,0.40
2022-09-13T14:52:39.516Z,0.25
2022-09-13T14:55:09.887Z,0.65
2022-09-13T14:57:41.953Z,0.52
2022-09-13T15:00:14.752Z,0.30
2022-09-13T15:02:46.898Z,0.40
2022-09-13T15:05:15.634Z,0.30
2022-09-13T15:07:44.852Z,0.30
2022-09-13T15:10:17.659Z,0.40
2022-09-13T15:13:10.861Z,0.40
2022-09-13T15:15:48.044Z,0.30
2022-09-13T15:18:17.811Z,0.30
2022-09-13T15:20:53.720Z,0.40
2022-09-13T15:23:43.563Z,0.45
2022-09-13T15:26:23.489Z,0.50
2022-09-13T15:28:51.519Z,0.38
2022-09-13T15:31:22.636Z,0.30
2022-09-13T15:33:49.908Z,0.40
2022-09-13T15:36:19.651Z,0.63
2022-09-13T15:39:01.207Z,0.30
2022-09-13T15:41:34.756Z,0.40
2022-09-13T15:44:05.227Z,0.45
2022-09-13T15:46:55.489Z,0.40
2022-09-13T15:49:26.560Z,0.40
2022-09-13T15:52:12.599Z,0.30
2022-09-13T15:54:41.882Z,0.40
2022-09-13T15:57:24.046Z,0.30
2022-09-13T15:59:50.942Z,0.93
2022-09-13T16:02:23.859Z,0.90
2022-09-13T16:04:50.629Z,0.50
2022-09-13T16:07:18.431Z,0.40
2022-09-13T16:09:45.837Z,0.60
2022-09-13T16:12:18.878Z,0.40
2022-09-13T16:14:50.364Z,0.50
2022-09-13T16:17:27.028Z,0.40
2022-09-13T16:19:55.950Z,0.47
2022-09-13T16:24:54.292Z,0.30
2022-09-13T16:27:21.137Z,0.90
2022-09-13T16:29:48.262Z,0.50
2022-09-13T16:32:15.601Z,0.98
2022-09-13T16:34:42.280Z,0.90
2022-09-13T16:37:14.022Z,0.50
2022-09-13T16:39:40.788Z,0.40
2022-09-13T16:42:09.727Z,0.50
2022-09-13T16:47:05.249Z,0.47
2022-09-13T16:49:32.053Z,0.90
2022-09-13T16:52:02.070Z,0.60
2022-09-13T16:54:31.129Z,0.60
2022-09-13T16:56:58.757Z,1.05
2022-09-13T16:59:25.892Z,0.80
2022-09-13T17:01:52.912Z,0.60
2022-09-13T17:04:27.181Z,0.55
2022-09-13T17:06:53.916Z,0.60
2022-09-13T17:09:22.450Z,0.77
2022-09-13T17:11:53.856Z,0.55
2022-09-13T17:14:22.792Z,1.10
2022-09-13T17:19:34.130Z,0.77
2022-09-13T17:22:02.685Z,1.00
2022-09-13T17:24:31.935Z,0.98
2022-09-13T17:26:59.103Z,0.52
2022-09-13T17:29:31.012Z,0.90
2022-09-13T17:31:59.043Z,0.90
2022-09-13T17:34:28.400Z,1.20
2022-09-13T17:36:57.848Z,1.05
2022-09-13T17:39:29.614Z,0.98
2022-09-13T17:41:56.401Z,1.13
2022-09-13T17:44:25.282Z,0.80
2022-09-13T17:46:56.959Z,1.10
2022-09-13T17:49:24.114Z,0.68
2022-09-13T17:51:50.819Z,0.98
2022-09-13T17:54:19.711Z,0.80
2022-09-13T17:56:46.811Z,0.88
2022-09-13T17:59:15.586Z,0.85
2022-09-13T18:01:48.502Z,0.80
2022-09-13T18:04:22.237Z,0.50
2022-09-13T18:06:51.068Z,1.30
2022-09-13T18:09:20.056Z,0.60
2022-09-13T18:14:20.309Z,0.77
2022-09-13T18:16:55.569Z,0.60
2022-09-13T18:19:44.294Z,1.50
2022-09-13T18:22:14.860Z,0.80
2022-09-13T18:24:44.294Z,0.80
2022-09-13T18:27:10.967Z,0.90
2022-09-13T18:29:40.156Z,0.75
2022-09-13T18:32:07.030Z,0.60
2022-09-13T18:34:33.732Z,0.80
2022-09-13T18:37:03.075Z,1.10
2022-09-13T18:39:29.856Z,0.60
2022-09-13T18:42:01.075Z,0.70
2022-09-13T18:44:30.642Z,0.95
2022-09-13T18:46:58.166Z,1.25
2022-09-13T18:49:24.871Z,0.70
2022-09-13T18:51:51.618Z,0.60
2022-09-13T18:54:18.704Z,0.80
2022-09-13T18:56:48.607Z,0.90
2022-09-13T18:59:15.554Z,1.00
2022-09-13T19:01:45.432Z,0.85
2022-09-13T19:04:20.004Z,0.95
2022-09-13T19:06:52.076Z,0.95
2022-09-13T19:09:20.963Z,0.88
2022-09-13T19:11:51.720Z,1.20
2022-09-13T19:14:22.932Z,0.93
2022-09-13T19:16:53.595Z,1.10
2022-09-13T19:19:20.841Z,0.80
2022-09-13T19:21:49.873Z,1.60
2022-09-13T19:24:19.476Z,1.15
2022-09-13T19:26:51.189Z,1.45
2022-09-13T19:29:21.870Z,1.38
2022-09-13T19:31:49.456Z,1.35
2022-09-13T19:34:18.165Z,1.30
2022-09-13T19:36:45.533Z,1.88
2022-09-13T19:39:12.679Z,1.38
2022-09-13T19:41:40.251Z,1.38
2022-09-13T19:44:13.750Z,1.38
2022-09-13T19:46:43.896Z,2.10
2022-09-13T19:49:15.865Z,1.33
2022-09-13T19:51:49.984Z,1.38
2022-09-13T19:54:21.370Z,1.92
2022-09-13T19:56:48.479Z,2.20
2022-09-13T19:59:17.137Z,2.03
2022-09-13T20:01:47.276Z,1.90
2022-09-13T20:04:16.821Z,2.20
2022-09-13T20:06:45.864Z,2.80
2022-09-13T20:09:13.925Z,1.88
2022-09-13T20:11:45.342Z,2.60
2022-09-13T20:14:13.637Z,2.10
2022-09-13T20:16:41.333Z,1.93
2022-09-13T20:19:29.600Z,1.77
2022-09-13T20:21:55.529Z,2.45
2022-09-13T20:24:22.247Z,2.17
2022-09-13T20:26:52.270Z,3.10
2022-09-13T20:29:21.516Z,2.55
2022-09-13T20:31:48.177Z,2.67
2022-09-13T20:34:15.263Z,2.13
2022-09-13T20:36:44.308Z,2.45
2022-09-13T20:39:15.135Z,1.92
2022-09-13T20:41:43.309Z,2.20
2022-09-13T20:44:10.821Z,1.90
2022-09-13T20:46:40.579Z,2.60
2022-09-13T20:49:09.169Z,1.63
2022-09-13T20:51:38.685Z,2.05
2022-09-13T20:54:07.771Z,2.53
2022-09-13T20:59:06.746Z,2.85
2022-09-13T21:01:33.923Z,2.78
2022-09-13T21:04:01.306Z,2.42
2022-09-13T21:06:29.721Z,1.88
2022-09-13T21:09:01.886Z,2.10
2022-09-13T21:11:35.129Z,2.55
2022-09-13T21:14:07.253Z,2.17
2022-09-13T21:16:39.803Z,1.70
2022-09-13T21:19:07.463Z,1.67
2022-09-13T21:21:40.305Z,1.33
2022-09-13T21:24:11.001Z,1.55
2022-09-13T21:26:42.642Z,1.23
2022-09-13T21:29:12.871Z,1.30
2022-09-13T21:31:40.246Z,1.08
2022-09-13T21:34:17.821Z,1.50
2022-09-13T21:36:45.603Z,1.90
2022-09-13T21:39:13.373Z,1.65
2022-09-13T21:41:43.044Z,1.23
2022-09-13T21:44:12.224Z,1.35
2022-09-13T21:46:39.984Z,1.73
2022-09-13T21:49:10.255Z,2.00
2022-09-13T21:51:41.893Z,2.00
2022-09-13T21:54:11.158Z,1.85
2022-09-13T21:56:42.397Z,1.67
2022-09-13T21:59:16.861Z,1.38
2022-09-13T22:01:46.973Z,1.73
2022-09-13T22:04:17.410Z,1.10
2022-09-13T22:06:47.939Z,1.83
2022-09-13T22:09:15.371Z,2.30
2022-09-13T22:11:49.523Z,1.98
2022-09-13T22:14:21.623Z,2.22
2022-09-13T22:16:48.505Z,2.03
2022-09-13T22:19:26.552Z,1.58
2022-09-13T22:21:59.227Z,1.55
2022-09-13T22:24:31.805Z,1.25
2022-09-13T22:26:59.165Z,1.50
2022-09-13T22:29:28.809Z,1.73
2022-09-13T22:31:58.484Z,1.60
2022-09-13T22:34:26.163Z,1.85
2022-09-13T22:36:56.014Z,1.77
2022-09-13T22:39:25.778Z,1.67
2022-09-13T22:41:52.644Z,1.70
2022-09-13T22:44:24.056Z,2.42
2022-09-13T22:46:51.182Z,2.00
2022-09-13T22:49:19.397Z,2.00
2022-09-13T22:51:47.622Z,1.93
2022-09-13T22:54:15.442Z,1.83
2022-09-13T22:56:42.560Z,1.70
2022-09-13T22:59:14.725Z,2.17
2022-09-13T23:01:41.683Z,1.85
2022-09-13T23:04:10.726Z,2.03
2022-09-13T23:06:37.549Z,1.85
2022-09-13T23:09:10.662Z,2.00
2022-09-13T23:11:39.132Z,1.65
2022-09-13T23:14:11.444Z,1.90
2022-09-13T23:16:44.122Z,1.58
2022-09-13T23:19:12.982Z,2.17
2022-09-13T23:21:40.317Z,1.60
2022-09-13T23:24:08.251Z,1.70
2022-09-13T23:26:35.222Z,1.63
2022-09-13T23:29:04.835Z,1.77
2022-09-13T23:34:03.511Z,1.58
2022-09-13T23:36:35.842Z,2.00
2022-09-13T23:39:07.971Z,2.45
2022-09-13T23:41:35.157Z,1.88
2022-09-13T23:44:02.596Z,1.58
2022-09-13T23:46:29.577Z,1.70
2022-09-13T23:48:56.315Z,2.03
2022-09-13T23:51:24.352Z,3.72
2022-09-13T23:53:52.509Z,2.45
2022-09-13T23:56:19.480Z,2.15
2022-09-13T23:58:47.189Z,2.13
